Terminal Aerodrome Forecast
Issued by NWS

Home | Current Version | Previous Version | Text Only | Print | Product List | Glossary On
Versions: 1 2 3 4 5 6 7 8 9 10 11 12 13 14 15 16 17 18 19 20 21 22 23 24 25 26 27 28 29 30 31 32 33 34 35 36 37 38 39
000
FTUS45 KPSR 260520
TAFIWA
TAF
KIWA 260520Z 2606/2706 12005KT P6SM SCT110
     FM261200 13005KT P6SM BKN100
     FM261900 25006KT P6SM SCT110 SCT250
     FM270100 13008KT P6SM SCT110 BKN250
      AMD LTD TO CLD VIS AND WIND TIL 261300=

USA.gov is the U.S. government's official web portal to all federal, state and local government web resources and services.